sensor_id;sensor_type;location;lat;lon;timestamp;P1;durP1;ratioP1;P2;durP2;ratioP2
69185;SDS011;56298;49.246;9.410;2024-03-08T00:01:39;31.07;;;14.80;;
69185;SDS011;56298;49.246;9.410;2024-03-08T00:04:04;30.67;;;15.20;;
69185;SDS011;56298;49.246;9.410;2024-03-08T00:06:31;30.33;;;15.15;;
69185;SDS011;56298;49.246;9.410;2024-03-08T00:08:56;30.33;;;15.43;;
69185;SDS011;56298;49.246;9.410;2024-03-08T00:11:22;32.17;;;15.07;;
69185;SDS011;56298;49.246;9.410;2024-03-08T00:13:47;29.48;;;14.27;;
69185;SDS011;56298;49.246;9.410;2024-03-08T00:16:13;29.23;;;14.63;;
69185;SDS011;56298;49.246;9.410;2024-03-08T00:18:38;29.17;;;15.10;;
69185;SDS011;56298;49.246;9.410;2024-03-08T00:21:03;31.17;;;14.83;;
69185;SDS011;56298;49.246;9.410;2024-03-08T00:23:29;29.67;;;14.82;;
69185;SDS011;56298;49.246;9.410;2024-03-08T00:25:54;33.90;;;15.83;;
69185;SDS011;56298;49.246;9.410;2024-03-08T00:28:20;31.60;;;14.98;;
69185;SDS011;56298;49.246;9.410;2024-03-08T00:30:46;30.83;;;15.33;;
69185;SDS011;56298;49.246;9.410;2024-03-08T00:33:11;29.80;;;14.97;;
69185;SDS011;56298;49.246;9.410;2024-03-08T00:35:36;31.98;;;14.80;;
69185;SDS011;56298;49.246;9.410;2024-03-08T00:38:02;32.73;;;16.00;;
69185;SDS011;56298;49.246;9.410;2024-03-08T00:40:27;30.03;;;15.33;;
69185;SDS011;56298;49.246;9.410;2024-03-08T00:42:53;29.65;;;14.90;;
69185;SDS011;56298;49.246;9.410;2024-03-08T00:45:19;31.43;;;15.47;;
69185;SDS011;56298;49.246;9.410;2024-03-08T00:47:44;32.57;;;15.30;;
69185;SDS011;56298;49.246;9.410;2024-03-08T00:50:09;30.83;;;15.57;;
69185;SDS011;56298;49.246;9.410;2024-03-08T00:52:36;34.07;;;15.87;;
69185;SDS011;56298;49.246;9.410;2024-03-08T00:55:02;32.55;;;16.33;;
69185;SDS011;56298;49.246;9.410;2024-03-08T00:57:27;28.77;;;14.95;;
69185;SDS011;56298;49.246;9.410;2024-03-08T00:59:52;33.80;;;15.38;;
69185;SDS011;56298;49.246;9.410;2024-03-08T01:02:18;30.30;;;15.10;;
69185;SDS011;56298;49.246;9.410;2024-03-08T01:04:44;30.83;;;15.38;;
69185;SDS011;56298;49.246;9.410;2024-03-08T01:07:09;33.33;;;15.77;;
69185;SDS011;56298;49.246;9.410;2024-03-08T01:09:35;32.20;;;15.77;;
69185;SDS011;56298;49.246;9.410;2024-03-08T01:12:01;33.97;;;16.37;;
69185;SDS011;56298;49.246;9.410;2024-03-08T01:14:26;30.13;;;16.17;;
69185;SDS011;56298;49.246;9.410;2024-03-08T01:16:51;31.97;;;16.10;;
69185;SDS011;56298;49.246;9.410;2024-03-08T01:19:17;33.93;;;16.37;;
69185;SDS011;56298;49.246;9.410;2024-03-08T01:21:42;31.58;;;16.45;;
69185;SDS011;56298;49.246;9.410;2024-03-08T01:24:08;33.67;;;16.67;;
69185;SDS011;56298;49.246;9.410;2024-03-08T01:26:33;33.43;;;16.33;;
69185;SDS011;56298;49.246;9.410;2024-03-08T01:29:02;33.07;;;15.87;;
69185;SDS011;56298;49.246;9.410;2024-03-08T01:31:30;33.38;;;15.88;;
69185;SDS011;56298;49.246;9.410;2024-03-08T01:33:56;33.17;;;15.77;;
69185;SDS011;56298;49.246;9.410;2024-03-08T01:36:22;32.80;;;16.20;;
69185;SDS011;56298;49.246;9.410;2024-03-08T01:38:47;32.67;;;15.93;;
69185;SDS011;56298;49.246;9.410;2024-03-08T01:41:12;31.47;;;15.97;;
69185;SDS011;56298;49.246;9.410;2024-03-08T01:43:39;33.10;;;15.70;;
69185;SDS011;56298;49.246;9.410;2024-03-08T01:46:04;32.37;;;16.10;;
69185;SDS011;56298;49.246;9.410;2024-03-08T01:48:30;31.73;;;14.95;;
69185;SDS011;56298;49.246;9.410;2024-03-08T01:50:56;30.73;;;15.23;;
69185;SDS011;56298;49.246;9.410;2024-03-08T01:53:22;33.88;;;16.27;;
69185;SDS011;56298;49.246;9.410;2024-03-08T01:55:49;34.63;;;16.70;;
69185;SDS011;56298;49.246;9.410;2024-03-08T01:58:16;33.00;;;16.30;;
69185;SDS011;56298;49.246;9.410;2024-03-08T02:00:42;32.17;;;16.00;;
69185;SDS011;56298;49.246;9.410;2024-03-08T02:03:09;34.10;;;15.80;;
69185;SDS011;56298;49.246;9.410;2024-03-08T02:05:35;31.40;;;15.77;;
69185;SDS011;56298;49.246;9.410;2024-03-08T02:08:01;33.97;;;15.95;;
69185;SDS011;56298;49.246;9.410;2024-03-08T02:10:27;35.10;;;16.48;;
69185;SDS011;56298;49.246;9.410;2024-03-08T02:12:53;32.20;;;15.63;;
69185;SDS011;56298;49.246;9.410;2024-03-08T02:15:18;32.77;;;16.00;;
69185;SDS011;56298;49.246;9.410;2024-03-08T02:17:44;33.97;;;16.08;;
69185;SDS011;56298;49.246;9.410;2024-03-08T02:20:10;34.20;;;16.50;;
69185;SDS011;56298;49.246;9.410;2024-03-08T02:22:38;31.35;;;15.88;;
69185;SDS011;56298;49.246;9.410;2024-03-08T02:25:03;31.50;;;15.50;;
69185;SDS011;56298;49.246;9.410;2024-03-08T02:27:30;31.90;;;15.82;;
69185;SDS011;56298;49.246;9.410;2024-03-08T02:29:56;37.33;;;15.90;;
69185;SDS011;56298;49.246;9.410;2024-03-08T02:32:25;32.75;;;15.18;;
69185;SDS011;56298;49.246;9.410;2024-03-08T02:34:50;32.83;;;15.95;;
69185;SDS011;56298;49.246;9.410;2024-03-08T02:37:16;31.42;;;15.80;;
69185;SDS011;56298;49.246;9.410;2024-03-08T02:39:42;31.27;;;15.60;;
69185;SDS011;56298;49.246;9.410;2024-03-08T02:42:07;32.87;;;15.87;;
69185;SDS011;56298;49.246;9.410;2024-03-08T02:44:32;32.80;;;16.37;;
69185;SDS011;56298;49.246;9.410;2024-03-08T02:47:00;31.92;;;15.75;;
69185;SDS011;56298;49.246;9.410;2024-03-08T02:49:26;34.27;;;15.97;;
69185;SDS011;56298;49.246;9.410;2024-03-08T02:51:52;31.90;;;15.60;;
69185;SDS011;56298;49.246;9.410;2024-03-08T02:54:18;30.77;;;15.48;;
69185;SDS011;56298;49.246;9.410;2024-03-08T02:56:44;34.25;;;15.88;;
69185;SDS011;56298;49.246;9.410;2024-03-08T02:59:09;32.33;;;15.88;;
69185;SDS011;56298;49.246;9.410;2024-03-08T03:01:34;31.73;;;15.97;;
69185;SDS011;56298;49.246;9.410;2024-03-08T03:04:01;34.17;;;16.07;;
69185;SDS011;56298;49.246;9.410;2024-03-08T03:06:26;35.13;;;16.23;;
69185;SDS011;56298;49.246;9.410;2024-03-08T03:08:52;31.70;;;15.53;;
69185;SDS011;56298;49.246;9.410;2024-03-08T03:11:17;34.20;;;16.10;;
69185;SDS011;56298;49.246;9.410;2024-03-08T03:13:42;34.20;;;15.83;;
69185;SDS011;56298;49.246;9.410;2024-03-08T03:16:16;31.60;;;15.75;;
69185;SDS011;56298;49.246;9.410;2024-03-08T03:18:43;31.63;;;15.75;;
69185;SDS011;56298;49.246;9.410;2024-03-08T03:21:08;31.77;;;15.50;;
69185;SDS011;56298;49.246;9.410;2024-03-08T03:23:34;33.87;;;16.67;;
69185;SDS011;56298;49.246;9.410;2024-03-08T03:25:59;31.67;;;15.67;;
69185;SDS011;56298;49.246;9.410;2024-03-08T03:28:25;33.00;;;15.93;;
69185;SDS011;56298;49.246;9.410;2024-03-08T03:30:50;32.47;;;15.70;;
69185;SDS011;56298;49.246;9.410;2024-03-08T03:33:15;34.37;;;16.20;;
69185;SDS011;56298;49.246;9.410;2024-03-08T03:35:41;31.65;;;15.45;;
69185;SDS011;56298;49.246;9.410;2024-03-08T03:38:07;31.67;;;15.70;;
69185;SDS011;56298;49.246;9.410;2024-03-08T03:40:33;32.17;;;15.27;;
69185;SDS011;56298;49.246;9.410;2024-03-08T03:42:59;32.75;;;15.85;;
69185;SDS011;56298;49.246;9.410;2024-03-08T03:45:25;33.33;;;15.70;;
69185;SDS011;56298;49.246;9.410;2024-03-08T03:47:50;32.03;;;16.13;;
69185;SDS011;56298;49.246;9.410;2024-03-08T03:50:16;32.70;;;15.73;;
69185;SDS011;56298;49.246;9.410;2024-03-08T03:52:44;33.17;;;15.98;;
69185;SDS011;56298;49.246;9.410;2024-03-08T03:55:09;33.93;;;16.33;;
69185;SDS011;56298;49.246;9.410;2024-03-08T03:57:36;31.90;;;15.82;;
69185;SDS011;56298;49.246;9.410;2024-03-08T04:00:02;33.07;;;16.27;;
69185;SDS011;56298;49.246;9.410;2024-03-08T04:02:28;33.70;;;16.77;;
69185;SDS011;56298;49.246;9.410;2024-03-08T04:04:53;33.20;;;16.33;;
69185;SDS011;56298;49.246;9.410;2024-03-08T04:07:19;33.40;;;16.02;;
69185;SDS011;56298;49.246;9.410;2024-03-08T04:09:45;34.83;;;16.40;;
69185;SDS011;56298;49.246;9.410;2024-03-08T04:12:10;31.93;;;16.27;;
69185;SDS011;56298;49.246;9.410;2024-03-08T04:14:35;35.47;;;17.30;;
69185;SDS011;56298;49.246;9.410;2024-03-08T04:17:01;34.70;;;16.80;;
69185;SDS011;56298;49.246;9.410;2024-03-08T04:19:27;32.92;;;16.30;;
69185;SDS011;56298;49.246;9.410;2024-03-08T04:21:53;37.97;;;17.60;;
69185;SDS011;56298;49.246;9.410;2024-03-08T04:24:18;34.83;;;17.73;;
69185;SDS011;56298;49.246;9.410;2024-03-08T04:26:43;32.87;;;16.90;;
69185;SDS011;56298;49.246;9.410;2024-03-08T04:29:09;35.73;;;18.27;;
69185;SDS011;56298;49.246;9.410;2024-03-08T04:31:34;37.40;;;18.50;;
69185;SDS011;56298;49.246;9.410;2024-03-08T04:33:59;34.07;;;17.37;;
69185;SDS011;56298;49.246;9.410;2024-03-08T04:36:24;34.07;;;16.57;;
69185;SDS011;56298;49.246;9.410;2024-03-08T04:38:50;38.37;;;18.10;;
69185;SDS011;56298;49.246;9.410;2024-03-08T04:41:16;34.90;;;17.40;;
69185;SDS011;56298;49.246;9.410;2024-03-08T04:43:41;34.72;;;17.45;;
69185;SDS011;56298;49.246;9.410;2024-03-08T04:46:07;36.13;;;17.98;;
69185;SDS011;56298;49.246;9.410;2024-03-08T04:48:32;34.35;;;17.25;;
69185;SDS011;56298;49.246;9.410;2024-03-08T04:50:58;35.90;;;17.37;;
69185;SDS011;56298;49.246;9.410;2024-03-08T04:53:23;35.07;;;17.53;;
69185;SDS011;56298;49.246;9.410;2024-03-08T04:55:48;35.07;;;17.23;;
69185;SDS011;56298;49.246;9.410;2024-03-08T04:58:14;37.63;;;19.65;;
69185;SDS011;56298;49.246;9.410;2024-03-08T05:00:39;35.05;;;17.98;;
69185;SDS011;56298;49.246;9.410;2024-03-08T05:03:04;35.97;;;18.67;;
69185;SDS011;56298;49.246;9.410;2024-03-08T05:05:30;38.70;;;18.87;;
69185;SDS011;56298;49.246;9.410;2024-03-08T05:07:55;36.97;;;19.15;;
69185;SDS011;56298;49.246;9.410;2024-03-08T05:10:21;37.47;;;20.17;;
69185;SDS011;56298;49.246;9.410;2024-03-08T05:12:46;41.87;;;21.47;;
69185;SDS011;56298;49.246;9.410;2024-03-08T05:15:12;35.67;;;18.13;;
69185;SDS011;56298;49.246;9.410;2024-03-08T05:17:37;34.87;;;19.00;;
69185;SDS011;56298;49.246;9.410;2024-03-08T05:20:02;37.53;;;19.67;;
69185;SDS011;56298;49.246;9.410;2024-03-08T05:22:33;36.53;;;19.10;;
69185;SDS011;56298;49.246;9.410;2024-03-08T05:24:58;38.58;;;21.15;;
69185;SDS011;56298;49.246;9.410;2024-03-08T05:27:23;37.33;;;20.43;;
69185;SDS011;56298;49.246;9.410;2024-03-08T05:29:49;36.80;;;19.50;;
69185;SDS011;56298;49.246;9.410;2024-03-08T05:32:14;37.70;;;19.53;;
69185;SDS011;56298;49.246;9.410;2024-03-08T05:34:39;38.73;;;21.20;;
69185;SDS011;56298;49.246;9.410;2024-03-08T05:37:04;38.13;;;20.60;;
69185;SDS011;56298;49.246;9.410;2024-03-08T05:39:30;37.17;;;18.70;;
69185;SDS011;56298;49.246;9.410;2024-03-08T05:41:55;37.83;;;19.60;;
69185;SDS011;56298;49.246;9.410;2024-03-08T05:44:21;36.17;;;18.57;;
69185;SDS011;56298;49.246;9.410;2024-03-08T05:46:46;38.73;;;18.50;;
69185;SDS011;56298;49.246;9.410;2024-03-08T05:49:11;37.43;;;18.07;;
69185;SDS011;56298;49.246;9.410;2024-03-08T05:51:38;37.78;;;18.13;;
69185;SDS011;56298;49.246;9.410;2024-03-08T05:54:05;35.22;;;17.98;;
69185;SDS011;56298;49.246;9.410;2024-03-08T05:56:34;34.05;;;17.63;;
69185;SDS011;56298;49.246;9.410;2024-03-08T05:58:59;38.83;;;18.60;;
69185;SDS011;56298;49.246;9.410;2024-03-08T06:01:25;34.67;;;17.30;;
69185;SDS011;56298;49.246;9.410;2024-03-08T06:03:51;36.40;;;17.85;;
69185;SDS011;56298;49.246;9.410;2024-03-08T06:06:19;36.27;;;17.63;;
69185;SDS011;56298;49.246;9.410;2024-03-08T06:08:46;31.93;;;17.07;;
69185;SDS011;56298;49.246;9.410;2024-03-08T06:11:13;35.80;;;17.02;;
69185;SDS011;56298;49.246;9.410;2024-03-08T06:13:39;36.40;;;17.27;;
69185;SDS011;56298;49.246;9.410;2024-03-08T06:16:05;37.47;;;17.15;;
69185;SDS011;56298;49.246;9.410;2024-03-08T06:18:33;36.95;;;17.50;;
69185;SDS011;56298;49.246;9.410;2024-03-08T06:20:59;32.30;;;16.10;;
69185;SDS011;56298;49.246;9.410;2024-03-08T06:23:24;33.97;;;16.63;;
69185;SDS011;56298;49.246;9.410;2024-03-08T06:25:49;32.93;;;16.70;;
69185;SDS011;56298;49.246;9.410;2024-03-08T06:28:14;35.27;;;16.43;;
69185;SDS011;56298;49.246;9.410;2024-03-08T06:30:40;33.40;;;16.27;;
69185;SDS011;56298;49.246;9.410;2024-03-08T06:33:05;32.35;;;16.17;;
69185;SDS011;56298;49.246;9.410;2024-03-08T06:35:32;31.30;;;15.90;;
69185;SDS011;56298;49.246;9.410;2024-03-08T06:37:57;31.33;;;16.37;;
69185;SDS011;56298;49.246;9.410;2024-03-08T06:40:23;29.50;;;15.23;;
69185;SDS011;56298;49.246;9.410;2024-03-08T06:42:48;28.70;;;15.60;;
69185;SDS011;56298;49.246;9.410;2024-03-08T06:45:14;33.00;;;15.77;;
69185;SDS011;56298;49.246;9.410;2024-03-08T06:47:44;30.13;;;16.02;;
69185;SDS011;56298;49.246;9.410;2024-03-08T06:50:09;29.83;;;15.23;;
69185;SDS011;56298;49.246;9.410;2024-03-08T06:52:34;30.43;;;15.30;;
69185;SDS011;56298;49.246;9.410;2024-03-08T06:55:00;31.40;;;16.10;;
69185;SDS011;56298;49.246;9.410;2024-03-08T06:57:26;30.13;;;15.38;;
69185;SDS011;56298;49.246;9.410;2024-03-08T06:59:51;31.57;;;15.50;;
69185;SDS011;56298;49.246;9.410;2024-03-08T07:02:17;31.00;;;15.70;;
69185;SDS011;56298;49.246;9.410;2024-03-08T07:04:42;30.47;;;15.27;;
69185;SDS011;56298;49.246;9.410;2024-03-08T07:07:07;30.10;;;15.97;;
69185;SDS011;56298;49.246;9.410;2024-03-08T07:09:35;32.30;;;15.35;;
69185;SDS011;56298;49.246;9.410;2024-03-08T07:12:01;31.03;;;15.73;;
69185;SDS011;56298;49.246;9.410;2024-03-08T07:14:26;29.07;;;15.43;;
69185;SDS011;56298;49.246;9.410;2024-03-08T07:16:52;31.67;;;15.80;;
69185;SDS011;56298;49.246;9.410;2024-03-08T07:19:17;30.17;;;15.30;;
69185;SDS011;56298;49.246;9.410;2024-03-08T07:21:44;30.57;;;15.40;;
69185;SDS011;56298;49.246;9.410;2024-03-08T07:24:09;28.73;;;15.20;;
69185;SDS011;56298;49.246;9.410;2024-03-08T07:26:53;29.52;;;15.05;;
69185;SDS011;56298;49.246;9.410;2024-03-08T07:29:20;28.02;;;14.45;;
69185;SDS011;56298;49.246;9.410;2024-03-08T07:31:46;29.67;;;14.77;;
69185;SDS011;56298;49.246;9.410;2024-03-08T07:34:30;30.77;;;14.85;;
69185;SDS011;56298;49.246;9.410;2024-03-08T07:36:57;29.38;;;14.40;;
69185;SDS011;56298;49.246;9.410;2024-03-08T07:39:22;28.05;;;14.88;;
69185;SDS011;56298;49.246;9.410;2024-03-08T07:41:51;28.50;;;14.60;;
69185;SDS011;56298;49.246;9.410;2024-03-08T07:44:17;28.90;;;14.38;;
69185;SDS011;56298;49.246;9.410;2024-03-08T07:46:45;29.08;;;14.40;;
69185;SDS011;56298;49.246;9.410;2024-03-08T07:49:11;26.77;;;13.82;;
69185;SDS011;56298;49.246;9.410;2024-03-08T07:51:39;29.02;;;14.85;;
69185;SDS011;56298;49.246;9.410;2024-03-08T07:54:04;26.50;;;13.73;;
69185;SDS011;56298;49.246;9.410;2024-03-08T07:56:30;29.73;;;14.23;;
69185;SDS011;56298;49.246;9.410;2024-03-08T07:58:55;27.13;;;14.47;;
69185;SDS011;56298;49.246;9.410;2024-03-08T08:01:21;26.87;;;13.90;;
69185;SDS011;56298;49.246;9.410;2024-03-08T08:03:46;26.33;;;13.80;;
69185;SDS011;56298;49.246;9.410;2024-03-08T08:06:14;27.25;;;14.15;;
69185;SDS011;56298;49.246;9.410;2024-03-08T08:08:44;28.88;;;14.73;;
69185;SDS011;56298;49.246;9.410;2024-03-08T08:11:09;27.02;;;13.60;;
69185;SDS011;56298;49.246;9.410;2024-03-08T08:13:36;28.85;;;14.20;;
69185;SDS011;56298;49.246;9.410;2024-03-08T08:16:02;26.27;;;14.63;;
69185;SDS011;56298;49.246;9.410;2024-03-08T08:18:28;28.95;;;15.10;;
69185;SDS011;56298;49.246;9.410;2024-03-08T08:20:54;30.48;;;14.90;;
69185;SDS011;56298;49.246;9.410;2024-03-08T08:23:19;25.25;;;14.18;;
69185;SDS011;56298;49.246;9.410;2024-03-08T08:25:45;27.83;;;14.13;;
69185;SDS011;56298;49.246;9.410;2024-03-08T08:28:11;26.20;;;13.48;;
69185;SDS011;56298;49.246;9.410;2024-03-08T08:30:37;25.95;;;13.88;;
69185;SDS011;56298;49.246;9.410;2024-03-08T08:33:03;27.43;;;14.50;;
69185;SDS011;56298;49.246;9.410;2024-03-08T08:35:30;26.52;;;13.70;;
69185;SDS011;56298;49.246;9.410;2024-03-08T08:37:57;27.05;;;14.05;;
69185;SDS011;56298;49.246;9.410;2024-03-08T08:40:23;24.90;;;13.20;;
69185;SDS011;56298;49.246;9.410;2024-03-08T08:42:50;27.70;;;14.55;;
69185;SDS011;56298;49.246;9.410;2024-03-08T08:45:16;26.60;;;14.13;;
69185;SDS011;56298;49.246;9.410;2024-03-08T08:47:42;28.98;;;14.65;;
69185;SDS011;56298;49.246;9.410;2024-03-08T08:50:08;27.80;;;14.07;;
69185;SDS011;56298;49.246;9.410;2024-03-08T08:52:36;26.73;;;14.00;;
69185;SDS011;56298;49.246;9.410;2024-03-08T08:55:03;26.00;;;13.57;;
69185;SDS011;56298;49.246;9.410;2024-03-08T08:57:29;26.47;;;13.57;;
69185;SDS011;56298;49.246;9.410;2024-03-08T08:59:55;25.90;;;13.00;;
69185;SDS011;56298;49.246;9.410;2024-03-08T09:02:22;26.60;;;13.38;;
69185;SDS011;56298;49.246;9.410;2024-03-08T09:04:47;26.25;;;13.90;;
69185;SDS011;56298;49.246;9.410;2024-03-08T09:07:13;26.38;;;13.50;;
69185;SDS011;56298;49.246;9.410;2024-03-08T09:09:39;29.30;;;14.32;;
69185;SDS011;56298;49.246;9.410;2024-03-08T09:12:04;25.23;;;13.70;;
69185;SDS011;56298;49.246;9.410;2024-03-08T09:14:29;25.83;;;13.57;;
69185;SDS011;56298;49.246;9.410;2024-03-08T09:16:55;26.30;;;14.10;;
69185;SDS011;56298;49.246;9.410;2024-03-08T09:19:20;26.43;;;14.00;;
69185;SDS011;56298;49.246;9.410;2024-03-08T09:21:48;26.73;;;14.45;;
69185;SDS011;56298;49.246;9.410;2024-03-08T09:24:13;26.47;;;14.27;;
69185;SDS011;56298;49.246;9.410;2024-03-08T09:26:38;26.27;;;13.53;;
69185;SDS011;56298;49.246;9.410;2024-03-08T09:29:05;27.60;;;14.13;;
69185;SDS011;56298;49.246;9.410;2024-03-08T09:31:32;27.50;;;14.30;;
69185;SDS011;56298;49.246;9.410;2024-03-08T09:33:57;27.47;;;14.43;;
69185;SDS011;56298;49.246;9.410;2024-03-08T09:36:22;26.90;;;13.77;;
69185;SDS011;56298;49.246;9.410;2024-03-08T09:38:47;26.67;;;13.70;;
69185;SDS011;56298;49.246;9.410;2024-03-08T09:41:15;26.90;;;13.85;;
69185;SDS011;56298;49.246;9.410;2024-03-08T09:43:40;26.90;;;13.83;;
69185;SDS011;56298;49.246;9.410;2024-03-08T09:46:06;26.30;;;14.03;;
69185;SDS011;56298;49.246;9.410;2024-03-08T09:48:32;25.83;;;13.97;;
69185;SDS011;56298;49.246;9.410;2024-03-08T09:50:58;26.73;;;14.10;;
69185;SDS011;56298;49.246;9.410;2024-03-08T09:53:23;25.88;;;14.10;;
69185;SDS011;56298;49.246;9.410;2024-03-08T09:55:48;28.00;;;14.80;;
69185;SDS011;56298;49.246;9.410;2024-03-08T09:58:15;27.45;;;14.65;;
69185;SDS011;56298;49.246;9.410;2024-03-08T10:00:42;29.60;;;14.80;;
69185;SDS011;56298;49.246;9.410;2024-03-08T10:03:08;26.50;;;13.80;;
69185;SDS011;56298;49.246;9.410;2024-03-08T10:05:34;29.30;;;15.05;;
69185;SDS011;56298;49.246;9.410;2024-03-08T10:07:59;28.10;;;14.88;;
69185;SDS011;56298;49.246;9.410;2024-03-08T10:10:25;29.70;;;14.97;;
69185;SDS011;56298;49.246;9.410;2024-03-08T10:12:51;28.42;;;15.13;;
69185;SDS011;56298;49.246;9.410;2024-03-08T10:15:16;28.30;;;14.55;;
69185;SDS011;56298;49.246;9.410;2024-03-08T10:17:42;27.90;;;14.80;;
69185;SDS011;56298;49.246;9.410;2024-03-08T10:20:18;30.27;;;15.25;;
69185;SDS011;56298;49.246;9.410;2024-03-08T10:22:44;27.37;;;14.03;;
69185;SDS011;56298;49.246;9.410;2024-03-08T10:25:10;29.42;;;15.32;;
69185;SDS011;56298;49.246;9.410;2024-03-08T10:27:37;27.60;;;14.67;;
69185;SDS011;56298;49.246;9.410;2024-03-08T10:30:04;27.55;;;14.50;;
69185;SDS011;56298;49.246;9.410;2024-03-08T10:32:31;29.73;;;15.97;;
69185;SDS011;56298;49.246;9.410;2024-03-08T10:34:56;30.00;;;15.47;;
69185;SDS011;56298;49.246;9.410;2024-03-08T10:37:22;30.07;;;15.63;;
69185;SDS011;56298;49.246;9.410;2024-03-08T10:40:09;28.50;;;14.88;;
69185;SDS011;56298;49.246;9.410;2024-03-08T10:42:41;29.25;;;15.40;;
69185;SDS011;56298;49.246;9.410;2024-03-08T10:45:22;27.80;;;14.48;;
69185;SDS011;56298;49.246;9.410;2024-03-08T10:47:59;29.88;;;16.20;;
69185;SDS011;56298;49.246;9.410;2024-03-08T10:50:41;29.77;;;16.10;;
69185;SDS011;56298;49.246;9.410;2024-03-08T10:53:10;27.27;;;15.27;;
69185;SDS011;56298;49.246;9.410;2024-03-08T10:55:36;27.35;;;15.40;;
69185;SDS011;56298;49.246;9.410;2024-03-08T10:58:02;27.90;;;15.10;;
69185;SDS011;56298;49.246;9.410;2024-03-08T11:00:27;28.60;;;15.43;;
69185;SDS011;56298;49.246;9.410;2024-03-08T11:02:55;29.47;;;15.77;;
69185;SDS011;56298;49.246;9.410;2024-03-08T11:05:31;27.08;;;14.98;;
69185;SDS011;56298;49.246;9.410;2024-03-08T11:10:50;28.00;;;15.87;;
69185;SDS011;56298;49.246;9.410;2024-03-08T11:16:10;28.45;;;15.48;;
69185;SDS011;56298;49.246;9.410;2024-03-08T11:18:37;28.17;;;15.77;;
69185;SDS011;56298;49.246;9.410;2024-03-08T11:21:08;26.55;;;15.25;;
69185;SDS011;56298;49.246;9.410;2024-03-08T11:23:37;26.52;;;14.80;;
69185;SDS011;56298;49.246;9.410;2024-03-08T11:26:03;26.67;;;14.70;;
69185;SDS011;56298;49.246;9.410;2024-03-08T11:28:32;26.52;;;14.82;;
69185;SDS011;56298;49.246;9.410;2024-03-08T11:33:27;26.45;;;14.55;;
69185;SDS011;56298;49.246;9.410;2024-03-08T11:38:28;27.60;;;15.10;;
69185;SDS011;56298;49.246;9.410;2024-03-08T11:40:56;27.50;;;14.50;;
69185;SDS011;56298;49.246;9.410;2024-03-08T11:43:22;27.45;;;15.00;;
69185;SDS011;56298;49.246;9.410;2024-03-08T11:45:47;28.90;;;15.30;;
69185;SDS011;56298;49.246;9.410;2024-03-08T11:48:12;27.83;;;14.93;;
69185;SDS011;56298;49.246;9.410;2024-03-08T11:50:38;25.73;;;14.87;;
69185;SDS011;56298;49.246;9.410;2024-03-08T11:53:03;25.00;;;14.33;;
69185;SDS011;56298;49.246;9.410;2024-03-08T11:55:30;26.00;;;14.30;;
69185;SDS011;56298;49.246;9.410;2024-03-08T11:58:02;27.20;;;14.43;;
69185;SDS011;56298;49.246;9.410;2024-03-08T12:00:28;25.85;;;14.70;;
69185;SDS011;56298;49.246;9.410;2024-03-08T12:03:03;25.97;;;13.27;;
69185;SDS011;56298;49.246;9.410;2024-03-08T12:05:29;26.33;;;14.27;;
69185;SDS011;56298;49.246;9.410;2024-03-08T12:07:59;25.50;;;14.47;;
69185;SDS011;56298;49.246;9.410;2024-03-08T12:10:25;25.95;;;13.90;;
69185;SDS011;56298;49.246;9.410;2024-03-08T12:12:51;27.53;;;15.07;;
69185;SDS011;56298;49.246;9.410;2024-03-08T12:15:18;28.33;;;15.65;;
69185;SDS011;56298;49.246;9.410;2024-03-08T12:17:45;26.20;;;14.32;;
69185;SDS011;56298;49.246;9.410;2024-03-08T12:20:16;26.35;;;14.13;;
69185;SDS011;56298;49.246;9.410;2024-03-08T12:22:43;26.52;;;14.63;;
69185;SDS011;56298;49.246;9.410;2024-03-08T12:25:10;25.52;;;14.07;;
69185;SDS011;56298;49.246;9.410;2024-03-08T12:27:38;25.35;;;13.82;;
69185;SDS011;56298;49.246;9.410;2024-03-08T12:32:51;24.58;;;14.00;;
69185;SDS011;56298;49.246;9.410;2024-03-08T12:35:19;26.02;;;14.30;;
69185;SDS011;56298;49.246;9.410;2024-03-08T12:37:47;25.00;;;13.50;;
69185;SDS011;56298;49.246;9.410;2024-03-08T12:40:14;27.35;;;15.15;;
69185;SDS011;56298;49.246;9.410;2024-03-08T12:42:41;28.45;;;14.23;;
69185;SDS011;56298;49.246;9.410;2024-03-08T12:45:08;25.05;;;14.23;;
69185;SDS011;56298;49.246;9.410;2024-03-08T12:47:34;27.53;;;14.07;;
69185;SDS011;56298;49.246;9.410;2024-03-08T12:50:00;25.17;;;14.10;;
69185;SDS011;56298;49.246;9.410;2024-03-08T12:52:25;27.30;;;14.65;;
69185;SDS011;56298;49.246;9.410;2024-03-08T12:54:51;26.33;;;14.87;;
69185;SDS011;56298;49.246;9.410;2024-03-08T12:57:16;24.88;;;14.40;;
69185;SDS011;56298;49.246;9.410;2024-03-08T12:59:42;24.95;;;14.25;;
69185;SDS011;56298;49.246;9.410;2024-03-08T13:02:07;27.52;;;14.38;;
69185;SDS011;56298;49.246;9.410;2024-03-08T13:04:36;25.20;;;14.18;;
69185;SDS011;56298;49.246;9.410;2024-03-08T13:07:01;26.23;;;13.80;;
69185;SDS011;56298;49.246;9.410;2024-03-08T13:09:27;27.00;;;14.30;;
69185;SDS011;56298;49.246;9.410;2024-03-08T13:11:52;25.27;;;14.27;;
69185;SDS011;56298;49.246;9.410;2024-03-08T13:14:20;25.30;;;14.48;;
69185;SDS011;56298;49.246;9.410;2024-03-08T13:16:45;25.43;;;14.83;;
69185;SDS011;56298;49.246;9.410;2024-03-08T13:19:13;27.17;;;15.32;;
69185;SDS011;56298;49.246;9.410;2024-03-08T13:21:39;24.37;;;13.80;;
69185;SDS011;56298;49.246;9.410;2024-03-08T13:24:04;27.03;;;14.27;;
69185;SDS011;56298;49.246;9.410;2024-03-08T13:26:30;25.13;;;14.37;;
69185;SDS011;56298;49.246;9.410;2024-03-08T13:28:57;25.90;;;14.77;;
69185;SDS011;56298;49.246;9.410;2024-03-08T13:31:23;26.25;;;14.68;;
69185;SDS011;56298;49.246;9.410;2024-03-08T13:33:48;23.80;;;13.43;;
69185;SDS011;56298;49.246;9.410;2024-03-08T13:36:14;24.67;;;13.75;;
69185;SDS011;56298;49.246;9.410;2024-03-08T13:38:41;26.08;;;14.18;;
69185;SDS011;56298;49.246;9.410;2024-03-08T13:41:08;25.63;;;14.13;;
69185;SDS011;56298;49.246;9.410;2024-03-08T13:43:33;25.00;;;13.70;;
69185;SDS011;56298;49.246;9.410;2024-03-08T13:46:01;25.67;;;14.18;;
69185;SDS011;56298;49.246;9.410;2024-03-08T13:48:26;26.37;;;14.10;;
69185;SDS011;56298;49.246;9.410;2024-03-08T13:50:51;25.20;;;13.67;;
69185;SDS011;56298;49.246;9.410;2024-03-08T13:53:17;25.87;;;14.13;;
69185;SDS011;56298;49.246;9.410;2024-03-08T13:55:42;24.08;;;13.90;;
69185;SDS011;56298;49.246;9.410;2024-03-08T13:58:07;27.10;;;14.73;;
69185;SDS011;56298;49.246;9.410;2024-03-08T14:00:38;26.98;;;14.07;;
69185;SDS011;56298;49.246;9.410;2024-03-08T14:03:06;29.27;;;15.13;;
69185;SDS011;56298;49.246;9.410;2024-03-08T14:05:32;25.10;;;14.33;;
69185;SDS011;56298;49.246;9.410;2024-03-08T14:08:01;25.80;;;14.73;;
69185;SDS011;56298;49.246;9.410;2024-03-08T14:10:29;26.92;;;14.63;;
69185;SDS011;56298;49.246;9.410;2024-03-08T14:12:56;25.17;;;14.10;;
69185;SDS011;56298;49.246;9.410;2024-03-08T14:15:22;25.65;;;14.13;;
69185;SDS011;56298;49.246;9.410;2024-03-08T14:17:52;25.57;;;13.90;;
69185;SDS011;56298;49.246;9.410;2024-03-08T14:20:18;25.73;;;13.63;;
69185;SDS011;56298;49.246;9.410;2024-03-08T14:22:43;24.30;;;13.03;;
69185;SDS011;56298;49.246;9.410;2024-03-08T14:25:08;27.43;;;14.50;;
69185;SDS011;56298;49.246;9.410;2024-03-08T14:27:42;24.75;;;13.45;;
69185;SDS011;56298;49.246;9.410;2024-03-08T14:30:11;25.55;;;14.27;;